createdAt,value
2022-08-19T00:00:27.507Z,17.64
2022-08-19T00:03:40.767Z,17.57
2022-08-19T00:06:46.484Z,17.55
2022-08-19T00:09:49.692Z,17.58
2022-08-19T00:12:52.896Z,17.65
2022-08-19T00:15:57.054Z,17.68
2022-08-19T00:19:00.899Z,17.79
2022-08-19T00:22:04.497Z,17.79
2022-08-19T00:25:08.738Z,19.07
2022-08-19T00:28:13.286Z,18.69
2022-08-19T00:31:17.508Z,18.24
2022-08-19T00:34:20.576Z,18.06
2022-08-19T00:37:27.303Z,18.15
2022-08-19T00:40:31.764Z,18.06
2022-08-19T00:43:35.122Z,18.09
2022-08-19T00:46:55.211Z,18.06
2022-08-19T00:50:02.069Z,17.85
2022-08-19T00:53:05.442Z,17.84
2022-08-19T00:56:09.573Z,17.95
2022-08-19T00:59:13.415Z,17.88
2022-08-19T01:02:37.709Z,17.89
2022-08-19T01:05:43.415Z,17.70
2022-08-19T01:08:46.708Z,17.57
2022-08-19T01:11:53.553Z,17.51
2022-08-19T01:14:57.712Z,17.47
2022-08-19T01:18:07.656Z,17.50
2022-08-19T01:21:17.379Z,17.44
2022-08-19T01:24:21.985Z,17.53
2022-08-19T01:27:25.218Z,17.53
2022-08-19T01:30:32.063Z,17.48
2022-08-19T01:33:35.561Z,17.38
2022-08-19T01:36:46.903Z,17.40
2022-08-19T01:39:50.220Z,17.34
2022-08-19T01:42:54.715Z,17.33
2022-08-19T01:45:57.984Z,17.26
2022-08-19T01:49:01.313Z,17.35
2022-08-19T01:52:06.478Z,17.31
2022-08-19T01:55:13.735Z,17.28
2022-08-19T01:58:21.955Z,17.28
2022-08-19T02:01:25.567Z,17.24
2022-08-19T02:04:35.188Z,17.24
2022-08-19T02:07:41.365Z,17.24
2022-08-19T02:10:45.045Z,17.13
2022-08-19T02:13:48.352Z,17.14
2022-08-19T02:16:51.497Z,17.21
2022-08-19T02:19:54.391Z,17.37
2022-08-19T02:22:57.905Z,17.38
2022-08-19T02:26:01.784Z,17.43
2022-08-19T02:29:05.414Z,17.35
2022-08-19T02:32:08.833Z,17.31
2022-08-19T02:35:13.545Z,17.31
2022-08-19T02:38:28.569Z,17.27
2022-08-19T02:41:34.107Z,17.26
2022-08-19T02:44:37.086Z,17.24
2022-08-19T02:47:40.597Z,17.19
2022-08-19T02:50:53.160Z,17.14
2022-08-19T02:53:57.995Z,17.09
2022-08-19T02:57:00.877Z,17.11
2022-08-19T03:00:08.560Z,17.06
2022-08-19T03:03:11.747Z,17.00
2022-08-19T03:06:16.874Z,17.02
2022-08-19T03:09:21.392Z,16.97
2022-08-19T03:12:24.585Z,17.00
2022-08-19T03:15:27.774Z,17.02
2022-08-19T03:18:31.107Z,17.00
2022-08-19T03:21:36.022Z,16.97
2022-08-19T03:24:39.504Z,17.00
2022-08-19T03:27:42.592Z,16.93
2022-08-19T03:31:00.154Z,16.93
2022-08-19T03:34:04.999Z,16.93
2022-08-19T03:37:13.453Z,16.92
2022-08-19T03:40:16.799Z,16.93
2022-08-19T03:43:20.113Z,16.87
2022-08-19T03:46:29.910Z,16.83
2022-08-19T03:49:36.227Z,16.80
2022-08-19T03:52:40.608Z,16.80
2022-08-19T03:55:48.767Z,16.79
2022-08-19T03:58:51.840Z,16.77
2022-08-19T04:01:57.455Z,16.77
2022-08-19T04:05:00.468Z,16.77
2022-08-19T04:08:08.670Z,16.76
2022-08-19T04:11:21.993Z,16.75
2022-08-19T04:14:45.476Z,16.80
2022-08-19T04:17:48.668Z,16.75
2022-08-19T04:20:51.887Z,16.77
2022-08-19T04:23:56.608Z,16.77
2022-08-19T04:27:01.826Z,16.76
2022-08-19T04:30:05.769Z,16.82
2022-08-19T04:33:10.749Z,16.86
2022-08-19T04:36:21.273Z,16.76
2022-08-19T04:39:48.937Z,16.75
2022-08-19T04:42:52.397Z,16.77
2022-08-19T04:45:56.862Z,16.83
2022-08-19T04:49:13.010Z,16.77
2022-08-19T04:52:17.105Z,16.83
2022-08-19T04:55:20.463Z,16.77
2022-08-19T04:58:25.958Z,16.79
2022-08-19T05:01:30.770Z,16.80
2022-08-19T05:04:34.619Z,16.90
2022-08-19T05:07:37.691Z,16.86
2022-08-19T05:10:41.946Z,16.87
2022-08-19T05:13:45.942Z,16.84
2022-08-19T05:16:49.203Z,16.90
2022-08-19T05:20:10.650Z,16.92
2022-08-19T05:23:21.856Z,16.99
2022-08-19T05:26:29.874Z,17.13
2022-08-19T05:29:36.499Z,17.23
2022-08-19T05:32:41.036Z,17.34
2022-08-19T05:35:45.503Z,17.47
2022-08-19T05:38:49.005Z,17.70
2022-08-19T05:42:08.064Z,17.78
2022-08-19T05:45:11.472Z,17.99
2022-08-19T05:48:15.277Z,18.12
2022-08-19T05:51:18.435Z,18.26
2022-08-19T05:54:22.667Z,18.37
2022-08-19T05:57:26.359Z,18.53
2022-08-19T06:00:32.481Z,18.69
2022-08-19T06:03:38.487Z,18.80
2022-08-19T06:06:41.937Z,18.93
2022-08-19T06:09:58.973Z,19.06
2022-08-19T06:13:04.155Z,19.14
2022-08-19T06:16:07.214Z,19.11
2022-08-19T06:19:18.864Z,19.15
2022-08-19T06:22:21.962Z,19.34
2022-08-19T06:25:30.050Z,19.52
2022-08-19T06:28:34.560Z,19.75
2022-08-19T06:31:41.510Z,19.82
2022-08-19T06:34:45.178Z,19.79
2022-08-19T06:37:48.592Z,19.97
2022-08-19T06:40:51.685Z,19.95
2022-08-19T06:43:56.468Z,19.99
2022-08-19T06:46:59.559Z,20.03
2022-08-19T06:50:05.363Z,20.08
2022-08-19T06:53:08.783Z,19.96
2022-08-19T06:56:12.008Z,20.05
2022-08-19T06:59:19.446Z,20.08
2022-08-19T07:02:27.204Z,20.12
2022-08-19T07:05:30.338Z,20.17
2022-08-19T07:08:35.321Z,20.27
2022-08-19T07:11:38.489Z,20.46
2022-08-19T07:14:43.118Z,20.43
2022-08-19T07:17:46.728Z,20.53
2022-08-19T07:21:10.197Z,20.50
2022-08-19T07:24:13.538Z,20.51
2022-08-19T07:27:17.316Z,20.51
2022-08-19T07:30:20.374Z,20.50
2022-08-19T07:33:24.125Z,20.61
2022-08-19T07:36:32.681Z,20.74
2022-08-19T07:39:38.236Z,21.17
2022-08-19T07:42:42.346Z,21.86
2022-08-19T07:45:46.025Z,22.03
2022-08-19T07:48:51.268Z,22.14
2022-08-19T07:51:59.102Z,21.83
2022-08-19T07:55:04.809Z,21.86
2022-08-19T07:58:08.466Z,22.18
2022-08-19T08:01:17.599Z,22.71
2022-08-19T08:04:39.497Z,23.02
2022-08-19T08:08:01.534Z,22.68
2022-08-19T08:11:07.725Z,22.90
2022-08-19T08:14:29.475Z,23.16
2022-08-19T08:17:49.837Z,23.42
2022-08-19T08:20:57.068Z,23.71
2022-08-19T08:27:11.135Z,23.89
2022-08-19T08:30:23.067Z,23.73
2022-08-19T08:33:33.493Z,23.89
2022-08-19T08:36:45.979Z,24.50
2022-08-19T08:39:49.017Z,24.61
2022-08-19T08:43:11.120Z,24.51
2022-08-19T08:46:31.505Z,24.20
2022-08-19T08:49:51.315Z,24.40
2022-08-19T08:52:57.688Z,24.99
2022-08-19T08:56:04.587Z,24.58
2022-08-19T08:59:15.610Z,24.45
2022-08-19T09:02:19.540Z,24.84
2022-08-19T09:05:26.150Z,24.75
2022-08-19T09:08:41.491Z,25.53
2022-08-19T09:12:16.425Z,25.32
2022-08-19T09:15:28.863Z,24.79
2022-08-19T09:18:42.586Z,24.62
2022-08-19T09:21:46.662Z,24.28
2022-08-19T09:24:53.316Z,24.96
2022-08-19T09:28:02.685Z,25.62
2022-08-19T09:31:08.450Z,25.80
2022-08-19T09:34:21.194Z,25.96
2022-08-19T09:37:26.174Z,26.20
2022-08-19T09:40:32.640Z,25.70
2022-08-19T09:43:44.279Z,24.54
2022-08-19T09:46:48.404Z,24.28
2022-08-19T09:49:51.885Z,24.60
2022-08-19T09:52:57.339Z,24.99
2022-08-19T09:56:00.974Z,25.12
2022-08-19T09:59:07.752Z,24.82
2022-08-19T10:02:12.104Z,24.35
2022-08-19T10:05:34.950Z,24.01
2022-08-19T10:08:41.235Z,23.97
2022-08-19T10:11:55.029Z,23.79
2022-08-19T10:14:58.394Z,23.48
2022-08-19T10:18:02.427Z,23.39
2022-08-19T10:21:11.669Z,23.38
2022-08-19T10:24:15.648Z,23.45
2022-08-19T10:27:22.144Z,23.55
2022-08-19T10:30:25.931Z,23.67
2022-08-19T10:33:52.987Z,23.84
2022-08-19T10:36:56.268Z,23.93
2022-08-19T10:40:00.213Z,24.01
2022-08-19T10:43:03.731Z,24.07
2022-08-19T10:46:14.252Z,24.03
2022-08-19T10:49:20.486Z,24.18
2022-08-19T10:52:35.592Z,24.28
2022-08-19T10:56:00.483Z,24.47
2022-08-19T10:59:05.841Z,24.52
2022-08-19T11:02:11.791Z,24.40
2022-08-19T11:05:15.866Z,24.44
2022-08-19T11:08:23.646Z,24.21
2022-08-19T11:11:29.639Z,23.93
2022-08-19T11:14:35.188Z,23.86
2022-08-19T11:17:44.732Z,23.66
2022-08-19T11:20:48.769Z,23.63
2022-08-19T11:23:54.956Z,23.35
2022-08-19T11:27:05.804Z,23.20
2022-08-19T11:30:12.908Z,23.28
2022-08-19T11:33:16.903Z,23.32
2022-08-19T11:36:22.634Z,23.43
2022-08-19T11:39:29.353Z,23.62
2022-08-19T11:42:51.380Z,23.83
2022-08-19T11:45:56.834Z,23.94
2022-08-19T11:49:01.898Z,23.87
2022-08-19T11:52:05.224Z,24.17
2022-08-19T11:55:09.179Z,23.99
2022-08-19T11:58:18.776Z,24.18
2022-08-19T12:01:24.448Z,24.09
2022-08-19T12:04:27.924Z,23.92
2022-08-19T12:07:34.303Z,23.92
2022-08-19T12:10:38.129Z,23.99
2022-08-19T12:13:43.642Z,23.97
2022-08-19T12:16:52.525Z,24.16
2022-08-19T12:19:56.112Z,24.50
2022-08-19T12:22:59.607Z,24.68
2022-08-19T12:26:02.887Z,24.96
2022-08-19T12:29:06.079Z,24.86
2022-08-19T12:32:10.458Z,24.75
2022-08-19T12:35:15.854Z,24.51
2022-08-19T12:38:19.737Z,24.38
2022-08-19T12:41:23.570Z,24.16
2022-08-19T12:44:28.775Z,24.13
2022-08-19T12:47:37.196Z,24.25
2022-08-19T12:50:46.844Z,24.47
2022-08-19T12:53:51.134Z,24.86
2022-08-19T12:56:53.989Z,24.79
2022-08-19T12:59:57.303Z,24.93
2022-08-19T13:03:01.222Z,24.98
2022-08-19T13:06:05.224Z,25.60
2022-08-19T13:09:08.327Z,25.54
2022-08-19T13:12:14.327Z,25.54
2022-08-19T13:15:24.127Z,25.94
2022-08-19T13:18:27.745Z,25.57
2022-08-19T13:21:32.712Z,25.83
2022-08-19T13:24:37.965Z,25.49
2022-08-19T13:27:41.410Z,25.62
2022-08-19T13:31:07.358Z,25.42
2022-08-19T13:34:11.764Z,25.63
2022-08-19T13:37:15.324Z,25.39
2022-08-19T13:40:24.094Z,25.47
2022-08-19T13:43:28.111Z,25.46
2022-08-19T13:46:32.042Z,25.63
2022-08-19T13:49:37.534Z,25.57
2022-08-19T13:52:41.462Z,25.03
2022-08-19T13:55:46.304Z,25.02
2022-08-19T13:58:49.768Z,24.84
2022-08-19T14:01:53.050Z,24.64
2022-08-19T14:04:56.315Z,24.47
2022-08-19T14:08:01.751Z,24.27
2022-08-19T14:11:06.762Z,24.16
2022-08-19T14:14:14.475Z,24.34
2022-08-19T14:17:19.860Z,24.41
2022-08-19T14:20:25.944Z,24.45
2022-08-19T14:23:30.399Z,24.86
2022-08-19T14:26:33.949Z,25.22
2022-08-19T14:29:37.274Z,25.35
2022-08-19T14:32:40.816Z,25.18
2022-08-19T14:35:46.008Z,24.85
2022-08-19T14:38:49.928Z,24.68
2022-08-19T14:41:52.958Z,24.48
2022-08-19T14:45:00.850Z,24.25
2022-08-19T14:48:08.353Z,24.21
2022-08-19T14:51:25.549Z,24.47
2022-08-19T14:54:29.695Z,24.50
2022-08-19T14:57:34.150Z,24.11
2022-08-19T15:00:37.402Z,24.01
2022-08-19T15:03:42.163Z,23.86
2022-08-19T15:06:45.248Z,23.97
2022-08-19T15:09:52.061Z,24.20
2022-08-19T15:12:55.861Z,24.32
2022-08-19T15:15:59.453Z,24.09
2022-08-19T15:19:02.520Z,23.79
2022-08-19T15:22:06.141Z,23.81
2022-08-19T15:25:12.624Z,23.81
2022-08-19T15:28:18.601Z,23.86
2022-08-19T15:31:25.552Z,23.74
2022-08-19T15:34:32.653Z,23.74
2022-08-19T15:37:37.046Z,23.62
2022-08-19T15:40:42.550Z,23.67
2022-08-19T15:43:45.811Z,23.65
2022-08-19T15:46:49.699Z,23.66
2022-08-19T15:49:55.759Z,23.67
2022-08-19T15:53:06.249Z,23.83
2022-08-19T15:56:11.055Z,23.67
2022-08-19T15:59:33.756Z,23.50
2022-08-19T16:03:02.585Z,23.55
2022-08-19T16:06:25.202Z,23.50
2022-08-19T16:09:31.157Z,23.45
2022-08-19T16:12:34.620Z,23.45
2022-08-19T16:15:38.108Z,23.49
2022-08-19T16:18:41.618Z,23.38
2022-08-19T16:21:48.072Z,23.23
2022-08-19T16:24:51.232Z,22.98
2022-08-19T16:28:08.050Z,22.76
2022-08-19T16:31:13.445Z,22.65
2022-08-19T16:34:16.694Z,22.61
2022-08-19T16:37:21.703Z,22.71
2022-08-19T16:40:25.365Z,22.75
2022-08-19T16:43:31.783Z,22.76
2022-08-19T16:46:35.858Z,22.74
2022-08-19T16:49:53.328Z,22.87
2022-08-19T16:52:59.554Z,22.90
2022-08-19T16:56:03.080Z,22.94
2022-08-19T16:59:06.964Z,23.02
2022-08-19T17:02:10.137Z,23.06
2022-08-19T17:05:13.464Z,23.02
2022-08-19T17:08:18.080Z,22.87
2022-08-19T17:11:23.078Z,22.71
2022-08-19T17:14:26.722Z,22.64
2022-08-19T17:17:30.971Z,22.63
2022-08-19T17:20:34.624Z,22.61
2022-08-19T17:23:43.103Z,22.61
2022-08-19T17:26:47.600Z,22.53
2022-08-19T17:29:50.773Z,22.44
2022-08-19T17:32:54.965Z,22.37
2022-08-19T17:35:58.253Z,22.41
2022-08-19T17:39:04.483Z,22.41
2022-08-19T17:42:08.242Z,22.45
2022-08-19T17:45:13.048Z,22.44
2022-08-19T17:48:16.661Z,22.37
2022-08-19T17:51:25.680Z,22.30
2022-08-19T17:54:33.783Z,22.23
2022-08-19T17:57:41.876Z,22.17
2022-08-19T18:00:53.243Z,22.16
2022-08-19T18:03:58.562Z,22.12
2022-08-19T18:07:04.549Z,22.03
2022-08-19T18:10:08.657Z,21.99
2022-08-19T18:13:17.447Z,21.89
2022-08-19T18:16:22.380Z,21.76
2022-08-19T18:19:30.130Z,21.75
2022-08-19T18:22:48.770Z,21.72
2022-08-19T18:25:52.742Z,21.69
2022-08-19T18:28:57.312Z,21.65
2022-08-19T18:32:00.708Z,21.53
2022-08-19T18:35:11.421Z,21.45
2022-08-19T18:38:35.987Z,21.37
2022-08-19T18:41:58.064Z,21.25
2022-08-19T18:45:19.962Z,21.17
2022-08-19T18:48:42.131Z,21.07
2022-08-19T18:51:45.701Z,21.01
2022-08-19T18:54:48.945Z,20.94
2022-08-19T18:57:53.089Z,20.91
2022-08-19T19:00:58.819Z,20.85
2022-08-19T19:04:06.117Z,20.85
2022-08-19T19:07:09.522Z,20.77
2022-08-19T19:10:13.661Z,20.77
2022-08-19T19:13:17.113Z,20.77
2022-08-19T19:16:24.421Z,20.80
2022-08-19T19:19:29.351Z,20.77
2022-08-19T19:22:32.366Z,20.80
2022-08-19T19:25:50.303Z,20.78
2022-08-19T19:28:54.980Z,20.80
2022-08-19T19:31:58.181Z,20.80
2022-08-19T19:35:01.330Z,20.84
2022-08-19T19:38:04.792Z,20.85
2022-08-19T19:41:08.138Z,20.85
2022-08-19T19:44:30.597Z,20.84
2022-08-19T19:47:34.703Z,20.83
2022-08-19T19:50:37.940Z,20.77
2022-08-19T19:53:41.794Z,20.77
2022-08-19T19:56:46.049Z,20.73
2022-08-19T19:59:51.386Z,20.80
2022-08-19T20:02:56.349Z,20.76
2022-08-19T20:06:00.543Z,20.74
2022-08-19T20:09:11.167Z,20.71
2022-08-19T20:12:15.880Z,20.64
2022-08-19T20:15:21.380Z,20.57
2022-08-19T20:18:25.256Z,20.54
2022-08-19T20:21:34.506Z,20.48
2022-08-19T20:24:39.403Z,20.46
2022-08-19T20:27:43.989Z,20.48
2022-08-19T20:30:48.241Z,20.53
2022-08-19T20:33:51.615Z,20.60
2022-08-19T20:36:54.876Z,20.66
2022-08-19T20:39:58.270Z,20.73
2022-08-19T20:43:02.249Z,20.74
2022-08-19T20:46:05.941Z,20.74
2022-08-19T20:49:09.726Z,20.71
2022-08-19T20:52:14.004Z,20.66
2022-08-19T20:55:16.954Z,20.54
2022-08-19T20:58:25.335Z,20.50
2022-08-19T21:01:28.545Z,20.46
2022-08-19T21:04:32.458Z,20.44
2022-08-19T21:07:39.077Z,20.41
2022-08-19T21:10:44.720Z,20.39
2022-08-19T21:13:49.220Z,20.37
2022-08-19T21:16:52.833Z,20.36
2022-08-19T21:19:56.172Z,20.29
2022-08-19T21:23:04.754Z,20.22
2022-08-19T21:26:09.278Z,20.16
2022-08-19T21:29:12.442Z,20.08
2022-08-19T21:32:15.777Z,20.02
2022-08-19T21:35:19.881Z,19.96
2022-08-19T21:38:23.290Z,19.99
2022-08-19T21:41:26.825Z,20.06
2022-08-19T21:44:30.187Z,20.08
2022-08-19T21:47:33.488Z,20.13
2022-08-19T21:50:37.006Z,20.09
2022-08-19T21:53:40.500Z,20.09
2022-08-19T21:56:47.626Z,20.08
2022-08-19T21:59:52.057Z,20.00
2022-08-19T22:02:57.011Z,19.93
2022-08-19T22:06:00.330Z,19.89
2022-08-19T22:09:04.067Z,19.85
2022-08-19T22:12:10.050Z,19.76
2022-08-19T22:15:15.667Z,19.66
2022-08-19T22:18:22.057Z,19.65
2022-08-19T22:21:39.826Z,19.59
2022-08-19T22:24:44.250Z,19.52
2022-08-19T22:27:47.650Z,19.47
2022-08-19T22:30:51.387Z,19.32
2022-08-19T22:33:54.521Z,19.30
2022-08-19T22:36:58.148Z,19.24
2022-08-19T22:40:05.581Z,19.22
2022-08-19T22:43:16.454Z,19.08
2022-08-19T22:46:20.210Z,19.00
2022-08-19T22:49:23.972Z,18.97
2022-08-19T22:52:27.906Z,18.91
2022-08-19T22:55:31.321Z,18.99
2022-08-19T22:58:36.332Z,19.78
2022-08-19T23:01:42.324Z,20.33
2022-08-19T23:04:45.710Z,19.63
2022-08-19T23:07:52.304Z,19.28
2022-08-19T23:10:56.735Z,19.57
2022-08-19T23:14:00.140Z,19.22
2022-08-19T23:17:05.295Z,19.04
2022-08-19T23:20:10.798Z,19.00
2022-08-19T23:23:18.910Z,20.44
2022-08-19T23:26:22.803Z,20.29
2022-08-19T23:29:44.867Z,19.57
2022-08-19T23:32:48.356Z,19.21
2022-08-19T23:35:54.918Z,19.07
2022-08-19T23:38:59.928Z,18.97
2022-08-19T23:42:03.601Z,18.94
2022-08-19T23:45:09.396Z,18.97
2022-08-19T23:48:13.345Z,19.00
2022-08-19T23:51:17.670Z,19.07
2022-08-19T23:54:20.780Z,19.07
2022-08-19T23:57:24.237Z,19.07
